sensor_id;sensor_type;location;lat;lon;timestamp;P1;durP1;ratioP1;P2;durP2;ratioP2
44842;SDS011;31884;52.538;13.820;2023-07-13T00:00:11;2.13;;;1.73;;
44842;SDS011;31884;52.538;13.820;2023-07-13T00:02:40;3.10;;;1.70;;
44842;SDS011;31884;52.538;13.820;2023-07-13T00:05:06;3.45;;;1.75;;
44842;SDS011;31884;52.538;13.820;2023-07-13T00:07:32;2.55;;;1.50;;
44842;SDS011;31884;52.538;13.820;2023-07-13T00:09:58;2.53;;;2.00;;
44842;SDS011;31884;52.538;13.820;2023-07-13T00:12:34;1.88;;;1.63;;
44842;SDS011;31884;52.538;13.820;2023-07-13T00:15:03;6.45;;;2.00;;
44842;SDS011;31884;52.538;13.820;2023-07-13T00:17:32;2.88;;;1.73;;
44842;SDS011;31884;52.538;13.820;2023-07-13T00:19:58;2.20;;;1.85;;
44842;SDS011;31884;52.538;13.820;2023-07-13T00:22:24;3.25;;;1.50;;
44842;SDS011;31884;52.538;13.820;2023-07-13T00:24:53;2.05;;;1.70;;
44842;SDS011;31884;52.538;13.820;2023-07-13T00:27:21;1.48;;;1.38;;
44842;SDS011;31884;52.538;13.820;2023-07-13T00:29:47;1.65;;;1.50;;
44842;SDS011;31884;52.538;13.820;2023-07-13T00:32:12;2.70;;;1.60;;
44842;SDS011;31884;52.538;13.820;2023-07-13T00:34:38;3.47;;;2.00;;
44842;SDS011;31884;52.538;13.820;2023-07-13T00:37:04;2.47;;;1.95;;
44842;SDS011;31884;52.538;13.820;2023-07-13T00:39:34;1.80;;;1.60;;
44842;SDS011;31884;52.538;13.820;2023-07-13T00:42:00;2.38;;;1.65;;
44842;SDS011;31884;52.538;13.820;2023-07-13T00:44:27;1.88;;;1.75;;
44842;SDS011;31884;52.538;13.820;2023-07-13T00:46:53;3.00;;;1.92;;
44842;SDS011;31884;52.538;13.820;2023-07-13T00:49:21;4.55;;;1.90;;
44842;SDS011;31884;52.538;13.820;2023-07-13T00:51:58;2.53;;;1.63;;
44842;SDS011;31884;52.538;13.820;2023-07-13T00:54:28;2.97;;;1.88;;
44842;SDS011;31884;52.538;13.820;2023-07-13T00:56:58;2.58;;;1.77;;
44842;SDS011;31884;52.538;13.820;2023-07-13T00:59:26;3.40;;;1.50;;
44842;SDS011;31884;52.538;13.820;2023-07-13T01:01:52;2.97;;;1.90;;
44842;SDS011;31884;52.538;13.820;2023-07-13T01:04:19;2.13;;;1.50;;
44842;SDS011;31884;52.538;13.820;2023-07-13T01:06:45;3.20;;;1.90;;
44842;SDS011;31884;52.538;13.820;2023-07-13T01:09:12;2.70;;;2.10;;
44842;SDS011;31884;52.538;13.820;2023-07-13T01:11:38;2.22;;;1.50;;
44842;SDS011;31884;52.538;13.820;2023-07-13T01:14:06;4.22;;;2.10;;
44842;SDS011;31884;52.538;13.820;2023-07-13T01:16:33;2.60;;;1.58;;
44842;SDS011;31884;52.538;13.820;2023-07-13T01:19:00;4.68;;;1.85;;
44842;SDS011;31884;52.538;13.820;2023-07-13T01:21:28;5.88;;;1.65;;
44842;SDS011;31884;52.538;13.820;2023-07-13T01:23:55;2.58;;;1.85;;
44842;SDS011;31884;52.538;13.820;2023-07-13T01:26:21;2.55;;;1.73;;
44842;SDS011;31884;52.538;13.820;2023-07-13T01:28:46;2.92;;;2.15;;
44842;SDS011;31884;52.538;13.820;2023-07-13T01:31:12;4.43;;;1.73;;
44842;SDS011;31884;52.538;13.820;2023-07-13T01:33:38;1.92;;;1.65;;
44842;SDS011;31884;52.538;13.820;2023-07-13T01:36:05;2.38;;;1.83;;
44842;SDS011;31884;52.538;13.820;2023-07-13T01:38:32;2.53;;;2.13;;
44842;SDS011;31884;52.538;13.820;2023-07-13T01:40:58;3.25;;;2.00;;
44842;SDS011;31884;52.538;13.820;2023-07-13T01:43:24;3.13;;;2.03;;
44842;SDS011;31884;52.538;13.820;2023-07-13T01:45:50;3.53;;;2.10;;
44842;SDS011;31884;52.538;13.820;2023-07-13T01:48:15;2.88;;;2.05;;
44842;SDS011;31884;52.538;13.820;2023-07-13T01:50:41;3.05;;;1.90;;
44842;SDS011;31884;52.538;13.820;2023-07-13T01:53:06;4.85;;;1.80;;
44842;SDS011;31884;52.538;13.820;2023-07-13T01:55:32;2.80;;;2.15;;
44842;SDS011;31884;52.538;13.820;2023-07-13T01:57:58;4.50;;;2.10;;
44842;SDS011;31884;52.538;13.820;2023-07-13T02:00:24;3.47;;;2.03;;
44842;SDS011;31884;52.538;13.820;2023-07-13T02:02:50;3.95;;;1.80;;
44842;SDS011;31884;52.538;13.820;2023-07-13T02:05:16;5.95;;;2.42;;
44842;SDS011;31884;52.538;13.820;2023-07-13T02:07:41;3.75;;;1.98;;
44842;SDS011;31884;52.538;13.820;2023-07-13T02:10:07;5.55;;;2.00;;
44842;SDS011;31884;52.538;13.820;2023-07-13T02:12:34;3.38;;;2.17;;
44842;SDS011;31884;52.538;13.820;2023-07-13T02:15:00;4.97;;;1.95;;
44842;SDS011;31884;52.538;13.820;2023-07-13T02:17:26;2.30;;;1.92;;
44842;SDS011;31884;52.538;13.820;2023-07-13T02:19:51;2.83;;;2.13;;
44842;SDS011;31884;52.538;13.820;2023-07-13T02:22:17;3.95;;;2.40;;
44842;SDS011;31884;52.538;13.820;2023-07-13T02:24:43;2.15;;;1.80;;
44842;SDS011;31884;52.538;13.820;2023-07-13T02:27:08;3.88;;;1.98;;
44842;SDS011;31884;52.538;13.820;2023-07-13T02:29:34;3.03;;;1.90;;
44842;SDS011;31884;52.538;13.820;2023-07-13T02:31:59;4.68;;;2.13;;
44842;SDS011;31884;52.538;13.820;2023-07-13T02:34:25;2.50;;;2.08;;
44842;SDS011;31884;52.538;13.820;2023-07-13T02:36:50;2.92;;;1.90;;
44842;SDS011;31884;52.538;13.820;2023-07-13T02:39:16;4.93;;;2.80;;
44842;SDS011;31884;52.538;13.820;2023-07-13T02:41:42;2.92;;;1.95;;
44842;SDS011;31884;52.538;13.820;2023-07-13T02:44:07;2.35;;;2.15;;
44842;SDS011;31884;52.538;13.820;2023-07-13T02:46:34;3.10;;;2.20;;
44842;SDS011;31884;52.538;13.820;2023-07-13T02:49:01;3.78;;;2.53;;
44842;SDS011;31884;52.538;13.820;2023-07-13T02:51:26;3.20;;;2.05;;
44842;SDS011;31884;52.538;13.820;2023-07-13T02:53:52;4.55;;;2.65;;
44842;SDS011;31884;52.538;13.820;2023-07-13T02:56:22;3.60;;;2.65;;
44842;SDS011;31884;52.538;13.820;2023-07-13T02:58:48;2.67;;;2.25;;
44842;SDS011;31884;52.538;13.820;2023-07-13T03:01:14;3.47;;;2.50;;
44842;SDS011;31884;52.538;13.820;2023-07-13T03:03:43;3.58;;;2.55;;
44842;SDS011;31884;52.538;13.820;2023-07-13T03:06:10;2.85;;;2.53;;
44842;SDS011;31884;52.538;13.820;2023-07-13T03:08:36;2.42;;;2.20;;
44842;SDS011;31884;52.538;13.820;2023-07-13T03:11:02;2.28;;;2.00;;
44842;SDS011;31884;52.538;13.820;2023-07-13T03:13:30;3.38;;;2.45;;
44842;SDS011;31884;52.538;13.820;2023-07-13T03:15:55;4.18;;;2.33;;
44842;SDS011;31884;52.538;13.820;2023-07-13T03:18:21;3.15;;;2.55;;
44842;SDS011;31884;52.538;13.820;2023-07-13T03:20:46;3.20;;;1.92;;
44842;SDS011;31884;52.538;13.820;2023-07-13T03:23:15;2.47;;;2.28;;
44842;SDS011;31884;52.538;13.820;2023-07-13T03:25:41;3.15;;;2.55;;
44842;SDS011;31884;52.538;13.820;2023-07-13T03:28:07;2.50;;;2.30;;
44842;SDS011;31884;52.538;13.820;2023-07-13T03:30:32;2.90;;;2.22;;
44842;SDS011;31884;52.538;13.820;2023-07-13T03:32:58;4.03;;;2.45;;
44842;SDS011;31884;52.538;13.820;2023-07-13T03:35:23;4.07;;;2.25;;
44842;SDS011;31884;52.538;13.820;2023-07-13T03:37:49;3.42;;;2.13;;
44842;SDS011;31884;52.538;13.820;2023-07-13T03:40:14;4.65;;;2.25;;
44842;SDS011;31884;52.538;13.820;2023-07-13T03:42:40;5.70;;;2.13;;
44842;SDS011;31884;52.538;13.820;2023-07-13T03:45:06;2.53;;;2.33;;
44842;SDS011;31884;52.538;13.820;2023-07-13T03:47:32;5.65;;;2.67;;
44842;SDS011;31884;52.538;13.820;2023-07-13T03:49:57;3.47;;;1.95;;
44842;SDS011;31884;52.538;13.820;2023-07-13T03:52:23;5.32;;;2.45;;
44842;SDS011;31884;52.538;13.820;2023-07-13T03:54:48;2.25;;;2.05;;
44842;SDS011;31884;52.538;13.820;2023-07-13T03:57:14;3.15;;;2.00;;
44842;SDS011;31884;52.538;13.820;2023-07-13T03:59:39;5.35;;;2.40;;
44842;SDS011;31884;52.538;13.820;2023-07-13T04:02:04;3.15;;;1.88;;
44842;SDS011;31884;52.538;13.820;2023-07-13T04:04:30;5.47;;;1.95;;
44842;SDS011;31884;52.538;13.820;2023-07-13T04:06:57;2.10;;;1.90;;
44842;SDS011;31884;52.538;13.820;2023-07-13T04:09:23;2.78;;;1.90;;
44842;SDS011;31884;52.538;13.820;2023-07-13T04:11:49;3.40;;;1.80;;
44842;SDS011;31884;52.538;13.820;2023-07-13T04:14:15;2.65;;;2.10;;
44842;SDS011;31884;52.538;13.820;2023-07-13T04:16:40;2.22;;;2.03;;
44842;SDS011;31884;52.538;13.820;2023-07-13T04:19:06;6.35;;;1.85;;
44842;SDS011;31884;52.538;13.820;2023-07-13T04:21:32;4.70;;;1.98;;
44842;SDS011;31884;52.538;13.820;2023-07-13T04:23:58;1.60;;;1.48;;
44842;SDS011;31884;52.538;13.820;2023-07-13T04:26:23;2.25;;;1.63;;
44842;SDS011;31884;52.538;13.820;2023-07-13T04:28:49;3.45;;;1.55;;
44842;SDS011;31884;52.538;13.820;2023-07-13T04:31:16;3.38;;;1.55;;
44842;SDS011;31884;52.538;13.820;2023-07-13T04:33:41;3.08;;;1.77;;
44842;SDS011;31884;52.538;13.820;2023-07-13T04:36:08;3.20;;;1.98;;
44842;SDS011;31884;52.538;13.820;2023-07-13T04:38:34;2.28;;;1.70;;
44842;SDS011;31884;52.538;13.820;2023-07-13T04:41:01;2.95;;;1.50;;
44842;SDS011;31884;52.538;13.820;2023-07-13T04:43:29;1.67;;;1.58;;
44842;SDS011;31884;52.538;13.820;2023-07-13T04:45:55;2.63;;;1.42;;
44842;SDS011;31884;52.538;13.820;2023-07-13T04:48:21;1.42;;;1.27;;
44842;SDS011;31884;52.538;13.820;2023-07-13T04:50:47;2.10;;;1.50;;
44842;SDS011;31884;52.538;13.820;2023-07-13T04:53:13;2.65;;;1.63;;
44842;SDS011;31884;52.538;13.820;2023-07-13T04:55:38;3.95;;;2.13;;
44842;SDS011;31884;52.538;13.820;2023-07-13T04:58:05;3.92;;;1.90;;
44842;SDS011;31884;52.538;13.820;2023-07-13T05:00:31;3.63;;;2.55;;
44842;SDS011;31884;52.538;13.820;2023-07-13T05:02:57;4.20;;;1.80;;
44842;SDS011;31884;52.538;13.820;2023-07-13T05:05:24;3.03;;;2.25;;
44842;SDS011;31884;52.538;13.820;2023-07-13T05:07:51;5.13;;;1.90;;
44842;SDS011;31884;52.538;13.820;2023-07-13T05:10:17;3.70;;;2.08;;
44842;SDS011;31884;52.538;13.820;2023-07-13T05:12:42;5.43;;;2.00;;
44842;SDS011;31884;52.538;13.820;2023-07-13T05:15:08;2.25;;;1.80;;
44842;SDS011;31884;52.538;13.820;2023-07-13T05:17:35;2.25;;;1.70;;
44842;SDS011;31884;52.538;13.820;2023-07-13T05:20:00;2.85;;;1.85;;
44842;SDS011;31884;52.538;13.820;2023-07-13T05:22:26;3.15;;;1.80;;
44842;SDS011;31884;52.538;13.820;2023-07-13T05:24:51;3.70;;;2.15;;
44842;SDS011;31884;52.538;13.820;2023-07-13T05:27:17;2.25;;;1.92;;
44842;SDS011;31884;52.538;13.820;2023-07-13T05:29:42;3.40;;;1.92;;
44842;SDS011;31884;52.538;13.820;2023-07-13T05:32:07;3.60;;;2.20;;
44842;SDS011;31884;52.538;13.820;2023-07-13T05:34:33;3.97;;;2.00;;
44842;SDS011;31884;52.538;13.820;2023-07-13T05:36:58;4.43;;;2.30;;
44842;SDS011;31884;52.538;13.820;2023-07-13T05:39:24;3.17;;;1.95;;
44842;SDS011;31884;52.538;13.820;2023-07-13T05:41:51;3.13;;;1.80;;
44842;SDS011;31884;52.538;13.820;2023-07-13T05:44:16;4.25;;;2.03;;
44842;SDS011;31884;52.538;13.820;2023-07-13T05:46:42;5.15;;;2.03;;
44842;SDS011;31884;52.538;13.820;2023-07-13T05:49:07;2.97;;;1.60;;
44842;SDS011;31884;52.538;13.820;2023-07-13T05:51:33;4.05;;;1.88;;
44842;SDS011;31884;52.538;13.820;2023-07-13T05:53:58;2.42;;;1.67;;
44842;SDS011;31884;52.538;13.820;2023-07-13T05:56:24;2.85;;;1.65;;
44842;SDS011;31884;52.538;13.820;2023-07-13T05:58:50;4.05;;;2.20;;
44842;SDS011;31884;52.538;13.820;2023-07-13T06:01:15;4.18;;;1.90;;
44842;SDS011;31884;52.538;13.820;2023-07-13T06:03:42;3.10;;;1.80;;
44842;SDS011;31884;52.538;13.820;2023-07-13T06:06:08;3.45;;;1.60;;
44842;SDS011;31884;52.538;13.820;2023-07-13T06:08:35;3.70;;;1.85;;
44842;SDS011;31884;52.538;13.820;2023-07-13T06:11:07;4.57;;;1.80;;
44842;SDS011;31884;52.538;13.820;2023-07-13T06:13:38;3.92;;;1.70;;
44842;SDS011;31884;52.538;13.820;2023-07-13T06:16:04;3.72;;;1.60;;
44842;SDS011;31884;52.538;13.820;2023-07-13T06:18:30;2.08;;;1.30;;
44842;SDS011;31884;52.538;13.820;2023-07-13T06:20:57;2.30;;;1.33;;
44842;SDS011;31884;52.538;13.820;2023-07-13T06:23:23;3.00;;;1.70;;
44842;SDS011;31884;52.538;13.820;2023-07-13T06:25:49;1.92;;;1.40;;
44842;SDS011;31884;52.538;13.820;2023-07-13T06:28:14;2.90;;;1.33;;
44842;SDS011;31884;52.538;13.820;2023-07-13T06:30:40;4.28;;;1.30;;
44842;SDS011;31884;52.538;13.820;2023-07-13T06:33:06;2.25;;;1.48;;
44842;SDS011;31884;52.538;13.820;2023-07-13T06:35:31;1.55;;;1.00;;
44842;SDS011;31884;52.538;13.820;2023-07-13T06:37:57;1.20;;;0.90;;
44842;SDS011;31884;52.538;13.820;2023-07-13T06:40:22;2.13;;;1.20;;
44842;SDS011;31884;52.538;13.820;2023-07-13T06:42:48;2.55;;;1.00;;
44842;SDS011;31884;52.538;13.820;2023-07-13T06:45:13;1.55;;;1.20;;
44842;SDS011;31884;52.538;13.820;2023-07-13T06:47:39;4.50;;;0.93;;
44842;SDS011;31884;52.538;13.820;2023-07-13T06:50:04;1.85;;;0.80;;
44842;SDS011;31884;52.538;13.820;2023-07-13T06:52:33;2.05;;;1.08;;
44842;SDS011;31884;52.538;13.820;2023-07-13T06:54:59;1.30;;;0.80;;
44842;SDS011;31884;52.538;13.820;2023-07-13T06:57:24;1.35;;;0.93;;
44842;SDS011;31884;52.538;13.820;2023-07-13T06:59:50;2.53;;;1.10;;
44842;SDS011;31884;52.538;13.820;2023-07-13T07:02:15;1.25;;;1.08;;
44842;SDS011;31884;52.538;13.820;2023-07-13T07:04:41;2.28;;;1.20;;
44842;SDS011;31884;52.538;13.820;2023-07-13T07:07:06;1.45;;;0.90;;
44842;SDS011;31884;52.538;13.820;2023-07-13T07:09:32;2.55;;;1.00;;
44842;SDS011;31884;52.538;13.820;2023-07-13T07:11:57;1.33;;;0.88;;
44842;SDS011;31884;52.538;13.820;2023-07-13T07:14:23;1.30;;;1.00;;
44842;SDS011;31884;52.538;13.820;2023-07-13T07:16:49;1.80;;;1.00;;
44842;SDS011;31884;52.538;13.820;2023-07-13T07:19:15;1.63;;;0.80;;
44842;SDS011;31884;52.538;13.820;2023-07-13T07:21:41;1.00;;;0.70;;
44842;SDS011;31884;52.538;13.820;2023-07-13T07:24:06;2.35;;;0.93;;
44842;SDS011;31884;52.538;13.820;2023-07-13T07:26:32;1.75;;;0.90;;
44842;SDS011;31884;52.538;13.820;2023-07-13T07:28:58;2.05;;;0.80;;
44842;SDS011;31884;52.538;13.820;2023-07-13T07:31:23;2.53;;;0.85;;
44842;SDS011;31884;52.538;13.820;2023-07-13T07:33:49;2.40;;;1.02;;
44842;SDS011;31884;52.538;13.820;2023-07-13T07:36:17;1.40;;;0.77;;
44842;SDS011;31884;52.538;13.820;2023-07-13T07:38:43;2.50;;;1.45;;
44842;SDS011;31884;52.538;13.820;2023-07-13T07:41:08;1.23;;;1.00;;
44842;SDS011;31884;52.538;13.820;2023-07-13T07:43:35;1.67;;;0.80;;
44842;SDS011;31884;52.538;13.820;2023-07-13T07:46:01;0.85;;;0.80;;
44842;SDS011;31884;52.538;13.820;2023-07-13T07:48:27;1.35;;;0.73;;
44842;SDS011;31884;52.538;13.820;2023-07-13T07:50:52;2.65;;;0.98;;
44842;SDS011;31884;52.538;13.820;2023-07-13T07:53:18;1.73;;;0.73;;
44842;SDS011;31884;52.538;13.820;2023-07-13T07:55:44;2.35;;;0.90;;
44842;SDS011;31884;52.538;13.820;2023-07-13T07:58:10;1.20;;;0.60;;
44842;SDS011;31884;52.538;13.820;2023-07-13T08:00:35;1.48;;;0.52;;
44842;SDS011;31884;52.538;13.820;2023-07-13T08:03:01;0.98;;;0.60;;
44842;SDS011;31884;52.538;13.820;2023-07-13T08:05:27;1.08;;;0.60;;
44842;SDS011;31884;52.538;13.820;2023-07-13T08:07:53;1.15;;;0.60;;
44842;SDS011;31884;52.538;13.820;2023-07-13T08:10:18;0.95;;;0.68;;
44842;SDS011;31884;52.538;13.820;2023-07-13T08:12:44;0.77;;;0.63;;
44842;SDS011;31884;52.538;13.820;2023-07-13T08:15:16;1.08;;;0.60;;
44842;SDS011;31884;52.538;13.820;2023-07-13T08:17:42;1.40;;;0.80;;
44842;SDS011;31884;52.538;13.820;2023-07-13T08:20:08;0.85;;;0.70;;
44842;SDS011;31884;52.538;13.820;2023-07-13T08:22:34;2.20;;;0.85;;
44842;SDS011;31884;52.538;13.820;2023-07-13T08:25:00;1.05;;;0.70;;
44842;SDS011;31884;52.538;13.820;2023-07-13T08:27:26;1.27;;;0.80;;
44842;SDS011;31884;52.538;13.820;2023-07-13T08:29:53;1.70;;;1.00;;
44842;SDS011;31884;52.538;13.820;2023-07-13T08:32:19;2.28;;;0.80;;
44842;SDS011;31884;52.538;13.820;2023-07-13T08:34:46;3.22;;;1.00;;
44842;SDS011;31884;52.538;13.820;2023-07-13T08:37:12;2.28;;;0.70;;
44842;SDS011;31884;52.538;13.820;2023-07-13T08:39:38;2.42;;;0.80;;
44842;SDS011;31884;52.538;13.820;2023-07-13T08:42:14;2.53;;;0.93;;
44842;SDS011;31884;52.538;13.820;2023-07-13T08:45:06;2.58;;;0.88;;
44842;SDS011;31884;52.538;13.820;2023-07-13T08:47:55;3.50;;;0.88;;
44842;SDS011;31884;52.538;13.820;2023-07-13T08:50:28;0.98;;;0.60;;
44842;SDS011;31884;52.538;13.820;2023-07-13T08:52:58;2.13;;;0.80;;
44842;SDS011;31884;52.538;13.820;2023-07-13T08:55:26;1.48;;;0.68;;
44842;SDS011;31884;52.538;13.820;2023-07-13T08:58:03;2.25;;;0.80;;
44842;SDS011;31884;52.538;13.820;2023-07-13T09:00:37;1.98;;;1.10;;
44842;SDS011;31884;52.538;13.820;2023-07-13T09:03:22;1.30;;;0.82;;
44842;SDS011;31884;52.538;13.820;2023-07-13T09:05:51;3.10;;;1.00;;
44842;SDS011;31884;52.538;13.820;2023-07-13T09:11:41;2.55;;;1.05;;
44842;SDS011;31884;52.538;13.820;2023-07-13T09:16:51;3.33;;;0.93;;
44842;SDS011;31884;52.538;13.820;2023-07-13T09:19:21;1.10;;;0.70;;
44842;SDS011;31884;52.538;13.820;2023-07-13T09:21:51;1.00;;;0.80;;
44842;SDS011;31884;52.538;13.820;2023-07-13T09:24:28;2.42;;;1.20;;
44842;SDS011;31884;52.538;13.820;2023-07-13T09:26:59;1.20;;;0.70;;
44842;SDS011;31884;52.538;13.820;2023-07-13T09:29:29;1.50;;;0.82;;
44842;SDS011;31884;52.538;13.820;2023-07-13T09:32:00;2.08;;;0.85;;
44842;SDS011;31884;52.538;13.820;2023-07-13T09:34:28;3.03;;;1.10;;
44842;SDS011;31884;52.538;13.820;2023-07-13T09:36:55;2.78;;;0.95;;
44842;SDS011;31884;52.538;13.820;2023-07-13T09:39:35;1.55;;;0.93;;
44842;SDS011;31884;52.538;13.820;2023-07-13T09:42:07;1.40;;;0.93;;
44842;SDS011;31884;52.538;13.820;2023-07-13T09:44:50;1.33;;;0.77;;
44842;SDS011;31884;52.538;13.820;2023-07-13T09:47:22;3.40;;;1.00;;
44842;SDS011;31884;52.538;13.820;2023-07-13T09:50:02;1.77;;;0.80;;
44842;SDS011;31884;52.538;13.820;2023-07-13T09:52:39;1.17;;;0.80;;
44842;SDS011;31884;52.538;13.820;2023-07-13T09:55:17;1.52;;;0.77;;
44842;SDS011;31884;52.538;13.820;2023-07-13T09:57:47;0.70;;;0.70;;
44842;SDS011;31884;52.538;13.820;2023-07-13T10:00:19;1.05;;;0.95;;
44842;SDS011;31884;52.538;13.820;2023-07-13T10:03:14;1.48;;;1.10;;
44842;SDS011;31884;52.538;13.820;2023-07-13T10:05:45;1.55;;;1.10;;
44842;SDS011;31884;52.538;13.820;2023-07-13T10:08:23;1.00;;;0.90;;
44842;SDS011;31884;52.538;13.820;2023-07-13T10:10:53;1.85;;;1.10;;
44842;SDS011;31884;52.538;13.820;2023-07-13T10:13:44;1.60;;;1.00;;
44842;SDS011;31884;52.538;13.820;2023-07-13T10:16:20;1.38;;;1.00;;
44842;SDS011;31884;52.538;13.820;2023-07-13T10:18:56;2.03;;;1.27;;
44842;SDS011;31884;52.538;13.820;2023-07-13T10:21:26;1.70;;;0.90;;
44842;SDS011;31884;52.538;13.820;2023-07-13T10:23:57;3.95;;;0.98;;
44842;SDS011;31884;52.538;13.820;2023-07-13T10:26:31;2.88;;;1.23;;
44842;SDS011;31884;52.538;13.820;2023-07-13T10:29:00;2.60;;;1.20;;
44842;SDS011;31884;52.538;13.820;2023-07-13T10:31:32;1.70;;;1.23;;
44842;SDS011;31884;52.538;13.820;2023-07-13T10:33:59;5.07;;;1.40;;
44842;SDS011;31884;52.538;13.820;2023-07-13T10:39:04;0.85;;;0.82;;
44842;SDS011;31884;52.538;13.820;2023-07-13T10:41:32;5.75;;;1.30;;
44842;SDS011;31884;52.538;13.820;2023-07-13T10:44:01;4.38;;;1.05;;
44842;SDS011;31884;52.538;13.820;2023-07-13T10:46:29;2.92;;;1.20;;
44842;SDS011;31884;52.538;13.820;2023-07-13T10:48:57;1.83;;;1.15;;
44842;SDS011;31884;52.538;13.820;2023-07-13T10:51:25;2.88;;;1.40;;
44842;SDS011;31884;52.538;13.820;2023-07-13T10:56:48;2.20;;;1.15;;
44842;SDS011;31884;52.538;13.820;2023-07-13T10:59:17;4.25;;;2.10;;
44842;SDS011;31884;52.538;13.820;2023-07-13T11:02:16;2.60;;;1.50;;
44842;SDS011;31884;52.538;13.820;2023-07-13T11:04:51;1.95;;;1.73;;
44842;SDS011;31884;52.538;13.820;2023-07-13T11:07:23;1.88;;;1.42;;
44842;SDS011;31884;52.538;13.820;2023-07-13T11:09:58;1.55;;;1.30;;
44842;SDS011;31884;52.538;13.820;2023-07-13T11:12:48;2.10;;;1.50;;
44842;SDS011;31884;52.538;13.820;2023-07-13T11:15:32;2.97;;;1.55;;
44842;SDS011;31884;52.538;13.820;2023-07-13T11:18:19;3.70;;;1.50;;
44842;SDS011;31884;52.538;13.820;2023-07-13T11:20:50;3.92;;;1.70;;
44842;SDS011;31884;52.538;13.820;2023-07-13T11:25:44;4.10;;;1.52;;
44842;SDS011;31884;52.538;13.820;2023-07-13T11:30:37;2.88;;;1.70;;
44842;SDS011;31884;52.538;13.820;2023-07-13T11:33:16;4.72;;;1.33;;
44842;SDS011;31884;52.538;13.820;2023-07-13T11:35:44;3.13;;;1.40;;
44842;SDS011;31884;52.538;13.820;2023-07-13T11:38:23;2.47;;;1.15;;
44842;SDS011;31884;52.538;13.820;2023-07-13T11:40:58;5.68;;;1.73;;
44842;SDS011;31884;52.538;13.820;2023-07-13T11:43:28;2.97;;;1.42;;
44842;SDS011;31884;52.538;13.820;2023-07-13T11:45:53;3.63;;;1.42;;
44842;SDS011;31884;52.538;13.820;2023-07-13T11:48:19;2.78;;;1.42;;
44842;SDS011;31884;52.538;13.820;2023-07-13T11:50:53;3.35;;;1.48;;
44842;SDS011;31884;52.538;13.820;2023-07-13T11:53:35;2.70;;;1.80;;
44842;SDS011;31884;52.538;13.820;2023-07-13T11:56:05;3.15;;;1.33;;
44842;SDS011;31884;52.538;13.820;2023-07-13T11:58:31;5.93;;;1.80;;
44842;SDS011;31884;52.538;13.820;2023-07-13T12:00:57;3.38;;;1.50;;
44842;SDS011;31884;52.538;13.820;2023-07-13T12:03:25;2.45;;;1.52;;
44842;SDS011;31884;52.538;13.820;2023-07-13T12:05:55;2.42;;;1.40;;
44842;SDS011;31884;52.538;13.820;2023-07-13T12:08:41;2.05;;;1.45;;
44842;SDS011;31884;52.538;13.820;2023-07-13T12:11:13;2.45;;;1.50;;
44842;SDS011;31884;52.538;13.820;2023-07-13T12:13:41;2.47;;;1.30;;
44842;SDS011;31884;52.538;13.820;2023-07-13T12:16:16;2.08;;;1.63;;
44842;SDS011;31884;52.538;13.820;2023-07-13T12:18:48;2.50;;;1.50;;
44842;SDS011;31884;52.538;13.820;2023-07-13T12:21:17;1.75;;;1.60;;
44842;SDS011;31884;52.538;13.820;2023-07-13T12:23:45;2.10;;;1.42;;
44842;SDS011;31884;52.538;13.820;2023-07-13T12:26:14;1.70;;;1.10;;
44842;SDS011;31884;52.538;13.820;2023-07-13T12:28:47;1.33;;;1.02;;
44842;SDS011;31884;52.538;13.820;2023-07-13T12:31:23;1.38;;;1.25;;
44842;SDS011;31884;52.538;13.820;2023-07-13T12:33:56;4.93;;;1.48;;
44842;SDS011;31884;52.538;13.820;2023-07-13T12:36:23;2.25;;;1.35;;
44842;SDS011;31884;52.538;13.820;2023-07-13T12:38:50;2.35;;;1.52;;
44842;SDS011;31884;52.538;13.820;2023-07-13T12:41:16;2.35;;;1.27;;
44842;SDS011;31884;52.538;13.820;2023-07-13T12:43:42;1.75;;;1.50;;
44842;SDS011;31884;52.538;13.820;2023-07-13T12:46:20;3.22;;;1.45;;
44842;SDS011;31884;52.538;13.820;2023-07-13T12:48:50;4.10;;;1.90;;
44842;SDS011;31884;52.538;13.820;2023-07-13T12:51:17;1.90;;;1.30;;
44842;SDS011;31884;52.538;13.820;2023-07-13T12:53:47;3.75;;;1.73;;
44842;SDS011;31884;52.538;13.820;2023-07-13T12:56:18;2.05;;;1.60;;
44842;SDS011;31884;52.538;13.820;2023-07-13T12:58:47;2.58;;;1.65;;
44842;SDS011;31884;52.538;13.820;2023-07-13T13:01:19;3.72;;;1.75;;
44842;SDS011;31884;52.538;13.820;2023-07-13T13:03:49;1.58;;;1.30;;
44842;SDS011;31884;52.538;13.820;2023-07-13T13:08:44;4.68;;;1.50;;
44842;SDS011;31884;52.538;13.820;2023-07-13T13:11:11;2.35;;;1.40;;
44842;SDS011;31884;52.538;13.820;2023-07-13T13:13:36;6.95;;;1.50;;
44842;SDS011;31884;52.538;13.820;2023-07-13T13:16:08;5.38;;;1.38;;
44842;SDS011;31884;52.538;13.820;2023-07-13T13:18:37;1.60;;;1.37;;
44842;SDS011;31884;52.538;13.820;2023-07-13T13:21:02;2.90;;;1.48;;
44842;SDS011;31884;52.538;13.820;2023-07-13T13:23:28;1.48;;;1.38;;
44842;SDS011;31884;52.538;13.820;2023-07-13T13:25:53;2.15;;;1.50;;
44842;SDS011;31884;52.538;13.820;2023-07-13T13:28:19;2.40;;;1.45;;
44842;SDS011;31884;52.538;13.820;2023-07-13T13:30:46;2.17;;;1.40;;
44842;SDS011;31884;52.538;13.820;2023-07-13T13:33:14;4.15;;;1.35;;
44842;SDS011;31884;52.538;13.820;2023-07-13T13:35:41;2.92;;;1.33;;
44842;SDS011;31884;52.538;13.820;2023-07-13T13:38:24;2.88;;;1.08;;
44842;SDS011;31884;52.538;13.820;2023-07-13T13:40:51;2.92;;;1.42;;
44842;SDS011;31884;52.538;13.820;2023-07-13T13:43:18;4.40;;;1.45;;
44842;SDS011;31884;52.538;13.820;2023-07-13T13:45:50;3.20;;;1.40;;
44842;SDS011;31884;52.538;13.820;2023-07-13T13:48:17;5.07;;;1.35;;
44842;SDS011;31884;52.538;13.820;2023-07-13T13:50:45;5.03;;;1.20;;
44842;SDS011;31884;52.538;13.820;2023-07-13T13:53:12;3.10;;;1.17;;
44842;SDS011;31884;52.538;13.820;2023-07-13T13:55:40;2.20;;;1.02;;
44842;SDS011;31884;52.538;13.820;2023-07-13T13:58:07;1.40;;;1.10;;
44842;SDS011;31884;52.538;13.820;2023-07-13T14:00:33;2.47;;;1.17;;
44842;SDS011;31884;52.538;13.820;2023-07-13T14:02:59;3.10;;;1.33;;
44842;SDS011;31884;52.538;13.820;2023-07-13T14:05:25;1.17;;;1.00;;
44842;SDS011;31884;52.538;13.820;2023-07-13T14:07:51;4.55;;;1.20;;
44842;SDS011;31884;52.538;13.820;2023-07-13T14:10:18;1.58;;;1.00;;
44842;SDS011;31884;52.538;13.820;2023-07-13T14:12:50;2.08;;;1.00;;
44842;SDS011;31884;52.538;13.820;2023-07-13T14:15:21;2.30;;;1.10;;
44842;SDS011;31884;52.538;13.820;2023-07-13T14:17:46;1.58;;;0.90;;
44842;SDS011;31884;52.538;13.820;2023-07-13T14:20:15;1.33;;;0.90;;
44842;SDS011;31884;52.538;13.820;2023-07-13T14:22:42;1.80;;;1.00;;
44842;SDS011;31884;52.538;13.820;2023-07-13T14:25:11;3.05;;;1.15;;
44842;SDS011;31884;52.538;13.820;2023-07-13T14:27:38;1.58;;;0.80;;
44842;SDS011;31884;52.538;13.820;2023-07-13T14:30:07;3.78;;;1.15;;
44842;SDS011;31884;52.538;13.820;2023-07-13T14:32:44;4.13;;;1.23;;
44842;SDS011;31884;52.538;13.820;2023-07-13T14:35:14;2.90;;;1.38;;
44842;SDS011;31884;52.538;13.820;2023-07-13T14:37:41;1.35;;;1.05;;
44842;SDS011;31884;52.538;13.820;2023-07-13T14:40:14;2.03;;;1.10;;
44842;SDS011;31884;52.538;13.820;2023-07-13T14:42:40;2.70;;;1.27;;
44842;SDS011;31884;52.538;13.820;2023-07-13T14:45:12;1.52;;;0.80;;
44842;SDS011;31884;52.538;13.820;2023-07-13T14:47:39;2.15;;;1.00;;
44842;SDS011;31884;52.538;13.820;2023-07-13T14:50:05;3.58;;;1.00;;
44842;SDS011;31884;52.538;13.820;2023-07-13T14:52:45;2.92;;;1.20;;
44842;SDS011;31884;52.538;13.820;2023-07-13T14:55:13;1.27;;;0.80;;
44842;SDS011;31884;52.538;13.820;2023-07-13T14:57:40;1.88;;;0.90;;